map of CPE home
CPE - Airport
Location
City:  Campeche, Campeche, México
Name:Ingeniero Alberto Acuña Ongay International Airport
ICAO:MMCP
IATA:CPE

Details
Type:Airport (Aerodrome, Airfield)
Use:International (customs port of entry)
Latitude:19°49'00"N (19.816794)
Longitude:90°30'01"W (-90.500313)
Datum:WGS 1984
Elevation:34 ft (10 m)
Variation:0.27°E (WMM2015 magnetic declination)
-0.13° annual change
Runways:1
Longest:8202 × 148 ft (2500 × 45 m), paved

Time
Time Zone:UTC-6 (DST-5)
Local Time:

Weather
METAR:MMCP 161052Z 00000KT 7SM SKC 17/16 A3011
TAF:MMCP 160507Z 1606/1706 02008KT P6SM SCT020 BKN080
FM161600 03010KT P6SM SCT020 SCT070
TEMPO 1620/1624 BKN020
FM170200 06005KT P6SM SCT020 SCT080

Related Locations
Nearby:
Farthest:CCK: 11723 mi / 18866 km
West Island (Pulau Panjang) [Cocos (Keeling) Islands], CC

Find:

   beyond  
but within

Other Information
Maps:
NOTAMs:
Links:
Sources:

  
  • flag of México
  • flag of Campeche
  

Sectional Chart

Flight Planning
at skyvector.com

Satellite Image

Google Maps Satellite view

 

Copyright © 2004-2018 Karl L. Swartz. All rights reserved.
The Great Circle Mapper name and logo are trademarks of the Great Circle Mapper.
All other trademarks mentioned herein belong to their respective owners.
Please see credits for attibutions and further copyright information.

  Follow gcmap on Facebook Follow gcmap on Twitter Follow gcmap on Google+ GCmap on LinkedIn

hCard Microformat

Geo Microformat